This demonstration page uses our WeatherBlox Daily Observations layout. Learn more.

Left ArrowRight Arrow

39.92423, -83.80882

Hourly Observations for March 2, 2021

Temp ( °F °C ) Dew Point ( °F °C ) Humidity (%) Winds ( mph kmh ) Pressure ( in mb ) Visibility ( mi km ) Precip ( " mm )
12:56 am 00:56 Clear 25 -3.9 17 -8.3 72 72 NNW 16 26 30.39 1029 10 16.0934 0 0
1:56 am 01:56 Clear 24 -4.4 14 -10 65 65 NNW 18 30 30.4 1029 10 16.0934 0 0
2:56 am 02:56 Clear 21 -6.1 15 -9.4 78 78 NNW 10 17 30.4 1030 10 16.0934 0 0
3:56 am 03:56 Clear 20 -6.7 15 -9.4 81 81 N 6 9 30.4 1030 10 16.0934 0 0
4:56 am 04:56 Clear 20 -6.7 16 -8.9 85 85 N 6 9 30.4 1029 10 16.0934 0 0
5:56 am 05:56 Clear 18 -7.8 15 -9.4 88 88 NE 7 11 30.4 1029 10 16.0934 0 0
6:56 am 06:56 Clear 18 -7.8 15 -9.4 88 88 NE 9 15 30.37 1029 10 16.0934 0 0
7:56 am 07:56 Sunny 21 -6.1 17 -8.3 85 85 ENE 7 11 30.37 1028 10 16.0934 0 0
8:56 am 08:56 Sunny 24 -4.4 18 -7.8 77 77 ESE 9 15 30.39 1029 10 16.0934 0 0
9:56 am 09:56 Sunny 27 -2.8 18 -7.8 69 69 ESE 10 17 30.37 1028 10 16.0934 0 0
10:56 am 10:56 Sunny 29 -1.7 20 -6.7 69 69 SSE 9 15 30.36 1028 10 16.0934 0 0
11:56 am 11:56 Sunny 31 -0.6 19 -7.2 61 61 S 9 15 30.35 1028 10 16.0934 0 0
12:56 pm 12:56 Sunny 34 1.1 20 -6.7 56 56 WSW 10 17 30.33 1027 10 16.0934 0 0
1:56 pm 13:56 Sunny 37 2.8 21 -6.1 52 52 SW 8 13 30.29 1026 10 16.0934 0 0
2:56 pm 14:56 Sunny 39 3.9 21 -6.1 48 48 SSW 9 15 30.26 1025 10 16.0934 0 0
3:56 pm 15:56 Sunny 39 3.9 19 -7.2 45 45 WSW 5 7 30.24 1024 10 16.0934 0 0
4:56 pm 16:56 Sunny 40 4.4 19 -7.2 43 43 SW 8 13 30.22 1023 10 16.0934 0 0
5:56 pm 17:56 Sunny 39 3.9 17 -8.3 41 41 W 6 9 30.2 1023 10 16.0934 0 0
6:56 pm 18:56 Clear 36 2.2 20 -6.7 52 52 SW 3 6 30.19 1023 10 16.0934 0 0
7:56 pm 19:56 Clear 33 0.6 16 -8.9 49 49 SSW 3 6 30.17 1022 10 16.0934 0 0
8:56 pm 20:56 Clear 32 0 21 -6.1 64 64 SSW 5 7 30.15 1021 10 16.0934 0 0
9:56 pm 21:56 Clear 31 -0.6 20 -6.7 64 64 S 5 7 30.14 1021 10 16.0934 0 0
10:56 pm 22:56 Clear 32 0 20 -6.7 61 61 SSW 7 11 30.1 1019 10 16.0934 0 0
11:56 pm 23:56 Clear 32 0 20 -6.7 61 61 SSW 9 15 30.09 1019 10 16.0934 0 0

Powered by AerisWeather